Terminal Aerodrome Forecast
Issued by NWS Bismarck, ND

Home | Current Version | Previous Version | Graphics & Text | Print | Product List | Glossary On
Versions: 1 2 3 4 5 6 7 8 9 10 11 12 13 14 15 16 17 18 19 20
000
FTUS43 KBIS 271345 AAA
TAFISN
TAF AMD
KISN 271345Z 2714/2812 VRB03KT P6SM FEW130 SCT200
     FM271600 13007KT P6SM SCT090
     FM272100 13010KT P6SM VCTS BKN070 OVC090CB
      TEMPO 2722/2801 VRB15G25KT 4SM -TSRA BKN050CB
     FM280200 VRB04KT 3SM -SHRA BKN025 OVC050=

USA.gov is the U.S. government's official web portal to all federal, state and local government web resources and services.